sensor_id;sensor_type;location;lat;lon;timestamp;P1;durP1;ratioP1;P2;durP2;ratioP2
63312;SDS011;49442;45.640;13.812;2024-03-17T00:00:55;23.02;;;12.82;;
63312;SDS011;49442;45.640;13.812;2024-03-17T00:03:21;28.17;;;13.52;;
63312;SDS011;49442;45.640;13.812;2024-03-17T00:05:47;23.52;;;13.73;;
63312;SDS011;49442;45.640;13.812;2024-03-17T00:08:13;27.27;;;14.60;;
63312;SDS011;49442;45.640;13.812;2024-03-17T00:10:39;22.85;;;14.07;;
63312;SDS011;49442;45.640;13.812;2024-03-17T00:13:05;23.08;;;15.68;;
63312;SDS011;49442;45.640;13.812;2024-03-17T00:15:31;22.80;;;14.82;;
63312;SDS011;49442;45.640;13.812;2024-03-17T00:17:57;23.15;;;16.48;;
63312;SDS011;49442;45.640;13.812;2024-03-17T00:20:23;27.33;;;14.90;;
63312;SDS011;49442;45.640;13.812;2024-03-17T00:22:50;25.42;;;15.52;;
63312;SDS011;49442;45.640;13.812;2024-03-17T00:25:18;23.92;;;16.35;;
63312;SDS011;49442;45.640;13.812;2024-03-17T00:27:44;24.60;;;14.07;;
63312;SDS011;49442;45.640;13.812;2024-03-17T00:30:10;23.35;;;13.60;;
63312;SDS011;49442;45.640;13.812;2024-03-17T00:32:40;25.65;;;15.75;;
63312;SDS011;49442;45.640;13.812;2024-03-17T00:35:07;23.30;;;17.02;;
63312;SDS011;49442;45.640;13.812;2024-03-17T00:37:34;25.67;;;16.08;;
63312;SDS011;49442;45.640;13.812;2024-03-17T00:40:01;23.30;;;16.17;;
63312;SDS011;49442;45.640;13.812;2024-03-17T00:42:27;23.95;;;16.33;;
63312;SDS011;49442;45.640;13.812;2024-03-17T00:44:53;25.70;;;16.83;;
63312;SDS011;49442;45.640;13.812;2024-03-17T00:47:18;27.65;;;16.98;;
63312;SDS011;49442;45.640;13.812;2024-03-17T00:49:45;25.23;;;17.35;;
63312;SDS011;49442;45.640;13.812;2024-03-17T00:52:10;24.73;;;17.25;;
63312;SDS011;49442;45.640;13.812;2024-03-17T00:54:36;26.33;;;18.25;;
63312;SDS011;49442;45.640;13.812;2024-03-17T00:57:02;23.02;;;17.27;;
63312;SDS011;49442;45.640;13.812;2024-03-17T00:59:27;28.48;;;18.40;;
63312;SDS011;49442;45.640;13.812;2024-03-17T01:01:53;36.80;;;18.15;;
63312;SDS011;49442;45.640;13.812;2024-03-17T01:04:19;29.75;;;20.35;;
63312;SDS011;49442;45.640;13.812;2024-03-17T01:06:45;36.70;;;19.65;;
63312;SDS011;49442;45.640;13.812;2024-03-17T01:09:11;30.13;;;18.95;;
63312;SDS011;49442;45.640;13.812;2024-03-17T01:11:37;32.00;;;20.38;;
63312;SDS011;49442;45.640;13.812;2024-03-17T01:14:04;33.95;;;20.48;;
63312;SDS011;49442;45.640;13.812;2024-03-17T01:16:29;31.67;;;19.60;;
63312;SDS011;49442;45.640;13.812;2024-03-17T01:18:55;36.67;;;22.23;;
63312;SDS011;49442;45.640;13.812;2024-03-17T01:21:21;28.00;;;20.05;;
63312;SDS011;49442;45.640;13.812;2024-03-17T01:23:48;30.42;;;20.45;;
63312;SDS011;49442;45.640;13.812;2024-03-17T01:26:14;33.38;;;21.23;;
63312;SDS011;49442;45.640;13.812;2024-03-17T01:28:40;29.75;;;21.00;;
63312;SDS011;49442;45.640;13.812;2024-03-17T01:31:06;37.97;;;23.75;;
63312;SDS011;49442;45.640;13.812;2024-03-17T01:33:32;32.78;;;22.38;;
63312;SDS011;49442;45.640;13.812;2024-03-17T01:35:57;31.95;;;23.08;;
63312;SDS011;49442;45.640;13.812;2024-03-17T01:38:23;32.25;;;23.17;;
63312;SDS011;49442;45.640;13.812;2024-03-17T01:40:49;40.65;;;24.58;;
63312;SDS011;49442;45.640;13.812;2024-03-17T01:43:14;35.92;;;23.95;;
63312;SDS011;49442;45.640;13.812;2024-03-17T01:45:41;37.38;;;24.10;;
63312;SDS011;49442;45.640;13.812;2024-03-17T01:48:08;41.55;;;24.58;;
63312;SDS011;49442;45.640;13.812;2024-03-17T01:50:40;34.63;;;23.85;;
63312;SDS011;49442;45.640;13.812;2024-03-17T01:53:06;36.08;;;25.65;;
63312;SDS011;49442;45.640;13.812;2024-03-17T01:55:38;37.50;;;24.05;;
63312;SDS011;49442;45.640;13.812;2024-03-17T01:58:05;42.65;;;24.85;;
63312;SDS011;49442;45.640;13.812;2024-03-17T02:00:35;40.10;;;25.08;;
63312;SDS011;49442;45.640;13.812;2024-03-17T02:03:05;37.97;;;23.88;;
63312;SDS011;49442;45.640;13.812;2024-03-17T02:05:31;38.78;;;25.25;;
63312;SDS011;49442;45.640;13.812;2024-03-17T02:07:59;41.83;;;26.02;;
63312;SDS011;49442;45.640;13.812;2024-03-17T02:10:25;39.00;;;24.50;;
63312;SDS011;49442;45.640;13.812;2024-03-17T02:12:51;38.28;;;24.65;;
63312;SDS011;49442;45.640;13.812;2024-03-17T02:15:17;45.78;;;25.70;;
63312;SDS011;49442;45.640;13.812;2024-03-17T02:17:43;43.15;;;24.17;;
63312;SDS011;49442;45.640;13.812;2024-03-17T02:20:08;33.88;;;24.83;;
63312;SDS011;49442;45.640;13.812;2024-03-17T02:22:36;37.13;;;26.00;;
63312;SDS011;49442;45.640;13.812;2024-03-17T02:25:02;37.65;;;26.65;;
63312;SDS011;49442;45.640;13.812;2024-03-17T02:27:29;46.40;;;27.27;;
63312;SDS011;49442;45.640;13.812;2024-03-17T02:29:55;44.28;;;29.83;;
63312;SDS011;49442;45.640;13.812;2024-03-17T02:32:20;42.22;;;28.52;;
63312;SDS011;49442;45.640;13.812;2024-03-17T02:34:48;43.53;;;30.65;;
63312;SDS011;49442;45.640;13.812;2024-03-17T02:37:13;47.13;;;30.05;;
63312;SDS011;49442;45.640;13.812;2024-03-17T02:39:39;45.03;;;29.15;;
63312;SDS011;49442;45.640;13.812;2024-03-17T02:42:06;45.22;;;31.60;;
63312;SDS011;49442;45.640;13.812;2024-03-17T02:44:33;52.53;;;31.02;;
63312;SDS011;49442;45.640;13.812;2024-03-17T02:47:00;42.60;;;30.52;;
63312;SDS011;49442;45.640;13.812;2024-03-17T02:49:27;46.75;;;30.80;;
63312;SDS011;49442;45.640;13.812;2024-03-17T02:52:00;42.10;;;28.23;;
63312;SDS011;49442;45.640;13.812;2024-03-17T02:54:26;39.47;;;27.83;;
63312;SDS011;49442;45.640;13.812;2024-03-17T02:56:52;39.80;;;28.33;;
63312;SDS011;49442;45.640;13.812;2024-03-17T02:59:17;48.00;;;30.75;;
63312;SDS011;49442;45.640;13.812;2024-03-17T03:01:43;48.38;;;31.75;;
63312;SDS011;49442;45.640;13.812;2024-03-17T03:04:10;45.78;;;30.48;;
63312;SDS011;49442;45.640;13.812;2024-03-17T03:06:36;48.10;;;30.38;;
63312;SDS011;49442;45.640;13.812;2024-03-17T03:09:02;49.80;;;28.92;;
63312;SDS011;49442;45.640;13.812;2024-03-17T03:11:30;47.47;;;30.85;;
63312;SDS011;49442;45.640;13.812;2024-03-17T03:13:56;44.53;;;29.73;;
63312;SDS011;49442;45.640;13.812;2024-03-17T03:16:21;46.97;;;30.02;;
63312;SDS011;49442;45.640;13.812;2024-03-17T03:18:48;46.45;;;29.40;;
63312;SDS011;49442;45.640;13.812;2024-03-17T03:21:15;45.63;;;30.05;;
63312;SDS011;49442;45.640;13.812;2024-03-17T03:23:42;41.20;;;31.10;;
63312;SDS011;49442;45.640;13.812;2024-03-17T03:26:10;52.17;;;31.05;;
63312;SDS011;49442;45.640;13.812;2024-03-17T03:28:36;48.85;;;29.05;;
63312;SDS011;49442;45.640;13.812;2024-03-17T03:31:03;48.05;;;31.27;;
63312;SDS011;49442;45.640;13.812;2024-03-17T03:33:29;40.70;;;30.10;;
63312;SDS011;49442;45.640;13.812;2024-03-17T03:35:55;50.85;;;30.42;;
63312;SDS011;49442;45.640;13.812;2024-03-17T03:38:21;40.53;;;29.00;;
63312;SDS011;49442;45.640;13.812;2024-03-17T03:40:48;43.03;;;29.90;;
63312;SDS011;49442;45.640;13.812;2024-03-17T03:43:14;45.97;;;29.30;;
63312;SDS011;49442;45.640;13.812;2024-03-17T03:45:40;45.42;;;29.83;;
63312;SDS011;49442;45.640;13.812;2024-03-17T03:48:06;44.95;;;30.15;;
63312;SDS011;49442;45.640;13.812;2024-03-17T03:50:37;41.60;;;29.40;;
63312;SDS011;49442;45.640;13.812;2024-03-17T03:53:03;46.15;;;30.23;;
63312;SDS011;49442;45.640;13.812;2024-03-17T03:55:30;42.60;;;29.42;;
63312;SDS011;49442;45.640;13.812;2024-03-17T03:57:56;48.75;;;30.48;;
63312;SDS011;49442;45.640;13.812;2024-03-17T04:00:22;48.42;;;31.75;;
63312;SDS011;49442;45.640;13.812;2024-03-17T04:02:49;48.50;;;31.38;;
63312;SDS011;49442;45.640;13.812;2024-03-17T04:05:16;46.00;;;30.90;;
63312;SDS011;49442;45.640;13.812;2024-03-17T04:07:43;47.95;;;31.65;;
63312;SDS011;49442;45.640;13.812;2024-03-17T04:10:11;53.05;;;32.90;;
63312;SDS011;49442;45.640;13.812;2024-03-17T04:12:38;49.40;;;33.17;;
63312;SDS011;49442;45.640;13.812;2024-03-17T04:15:04;42.85;;;30.58;;
63312;SDS011;49442;45.640;13.812;2024-03-17T04:17:31;44.90;;;32.95;;
63312;SDS011;49442;45.640;13.812;2024-03-17T04:19:57;48.92;;;32.03;;
63312;SDS011;49442;45.640;13.812;2024-03-17T04:22:23;51.42;;;32.75;;
63312;SDS011;49442;45.640;13.812;2024-03-17T04:24:50;50.45;;;31.02;;
63312;SDS011;49442;45.640;13.812;2024-03-17T04:27:19;47.63;;;33.58;;
63312;SDS011;49442;45.640;13.812;2024-03-17T04:29:49;47.90;;;33.08;;
63312;SDS011;49442;45.640;13.812;2024-03-17T04:32:15;49.40;;;31.40;;
63312;SDS011;49442;45.640;13.812;2024-03-17T04:34:41;46.65;;;33.45;;
63312;SDS011;49442;45.640;13.812;2024-03-17T04:37:08;56.10;;;35.53;;
63312;SDS011;49442;45.640;13.812;2024-03-17T04:39:37;51.15;;;34.80;;
63312;SDS011;49442;45.640;13.812;2024-03-17T04:42:04;45.92;;;32.60;;
63312;SDS011;49442;45.640;13.812;2024-03-17T04:44:31;47.55;;;34.00;;
63312;SDS011;49442;45.640;13.812;2024-03-17T04:46:56;55.78;;;33.78;;
63312;SDS011;49442;45.640;13.812;2024-03-17T04:49:22;45.42;;;31.75;;
63312;SDS011;49442;45.640;13.812;2024-03-17T04:51:48;45.78;;;31.50;;
63312;SDS011;49442;45.640;13.812;2024-03-17T04:54:14;48.92;;;31.35;;
63312;SDS011;49442;45.640;13.812;2024-03-17T04:56:39;45.35;;;31.70;;
63312;SDS011;49442;45.640;13.812;2024-03-17T04:59:05;44.97;;;32.85;;
63312;SDS011;49442;45.640;13.812;2024-03-17T05:01:31;40.95;;;30.05;;
63312;SDS011;49442;45.640;13.812;2024-03-17T05:04:01;44.95;;;31.27;;
63312;SDS011;49442;45.640;13.812;2024-03-17T05:06:29;54.17;;;32.70;;
63312;SDS011;49442;45.640;13.812;2024-03-17T05:08:55;49.30;;;30.23;;
63312;SDS011;49442;45.640;13.812;2024-03-17T05:11:21;47.17;;;31.10;;
63312;SDS011;49442;45.640;13.812;2024-03-17T05:13:48;45.83;;;30.00;;
63312;SDS011;49442;45.640;13.812;2024-03-17T05:16:14;43.38;;;29.60;;
63312;SDS011;49442;45.640;13.812;2024-03-17T05:18:40;48.53;;;32.03;;
63312;SDS011;49442;45.640;13.812;2024-03-17T05:21:06;46.53;;;31.85;;
63312;SDS011;49442;45.640;13.812;2024-03-17T05:23:34;48.35;;;33.08;;
63312;SDS011;49442;45.640;13.812;2024-03-17T05:26:04;49.45;;;32.97;;
63312;SDS011;49442;45.640;13.812;2024-03-17T05:28:30;51.00;;;32.90;;
63312;SDS011;49442;45.640;13.812;2024-03-17T05:30:56;46.88;;;32.83;;
63312;SDS011;49442;45.640;13.812;2024-03-17T05:33:22;49.80;;;34.97;;
63312;SDS011;49442;45.640;13.812;2024-03-17T05:35:52;49.92;;;34.90;;
63312;SDS011;49442;45.640;13.812;2024-03-17T05:38:28;51.22;;;35.22;;
63312;SDS011;49442;45.640;13.812;2024-03-17T05:41:02;55.00;;;36.70;;
63312;SDS011;49442;45.640;13.812;2024-03-17T05:43:30;51.15;;;36.45;;
63312;SDS011;49442;45.640;13.812;2024-03-17T05:46:10;53.55;;;34.35;;
63312;SDS011;49442;45.640;13.812;2024-03-17T05:48:38;48.58;;;33.70;;
63312;SDS011;49442;45.640;13.812;2024-03-17T05:51:05;45.10;;;33.80;;
63312;SDS011;49442;45.640;13.812;2024-03-17T05:53:32;47.45;;;35.20;;
63312;SDS011;49442;45.640;13.812;2024-03-17T05:55:59;55.10;;;34.15;;
63312;SDS011;49442;45.640;13.812;2024-03-17T05:58:24;48.72;;;32.45;;
63312;SDS011;49442;45.640;13.812;2024-03-17T06:00:50;53.03;;;39.47;;
63312;SDS011;49442;45.640;13.812;2024-03-17T06:03:16;48.70;;;32.35;;
63312;SDS011;49442;45.640;13.812;2024-03-17T06:05:42;45.83;;;30.67;;
63312;SDS011;49442;45.640;13.812;2024-03-17T06:08:10;42.55;;;29.63;;
63312;SDS011;49442;45.640;13.812;2024-03-17T06:10:36;45.83;;;31.65;;
63312;SDS011;49442;45.640;13.812;2024-03-17T06:13:03;46.90;;;32.13;;
63312;SDS011;49442;45.640;13.812;2024-03-17T06:15:29;46.50;;;31.52;;
63312;SDS011;49442;45.640;13.812;2024-03-17T06:17:55;43.42;;;31.45;;
63312;SDS011;49442;45.640;13.812;2024-03-17T06:20:22;43.88;;;31.15;;
63312;SDS011;49442;45.640;13.812;2024-03-17T06:22:49;47.30;;;32.42;;
63312;SDS011;49442;45.640;13.812;2024-03-17T06:25:15;46.53;;;31.80;;
63312;SDS011;49442;45.640;13.812;2024-03-17T06:27:41;43.08;;;28.83;;
63312;SDS011;49442;45.640;13.812;2024-03-17T06:30:13;46.00;;;31.05;;
63312;SDS011;49442;45.640;13.812;2024-03-17T06:32:42;47.42;;;30.83;;
63312;SDS011;49442;45.640;13.812;2024-03-17T06:35:12;40.67;;;29.08;;
63312;SDS011;49442;45.640;13.812;2024-03-17T06:37:40;41.45;;;28.52;;
63312;SDS011;49442;45.640;13.812;2024-03-17T06:40:07;39.63;;;27.75;;
63312;SDS011;49442;45.640;13.812;2024-03-17T06:42:38;33.23;;;25.43;;
63312;SDS011;49442;45.640;13.812;2024-03-17T06:45:04;36.95;;;25.48;;
63312;SDS011;49442;45.640;13.812;2024-03-17T06:47:30;37.13;;;26.55;;
63312;SDS011;49442;45.640;13.812;2024-03-17T06:49:56;38.33;;;25.33;;
63312;SDS011;49442;45.640;13.812;2024-03-17T06:52:22;32.22;;;24.38;;
63312;SDS011;49442;45.640;13.812;2024-03-17T06:54:47;30.13;;;23.02;;
63312;SDS011;49442;45.640;13.812;2024-03-17T06:57:16;37.75;;;26.88;;
63312;SDS011;49442;45.640;13.812;2024-03-17T06:59:42;36.20;;;25.17;;
63312;SDS011;49442;45.640;13.812;2024-03-17T07:02:08;32.90;;;25.95;;
63312;SDS011;49442;45.640;13.812;2024-03-17T07:04:37;40.15;;;26.70;;
63312;SDS011;49442;45.640;13.812;2024-03-17T07:07:03;43.58;;;29.33;;
63312;SDS011;49442;45.640;13.812;2024-03-17T07:09:29;41.20;;;29.95;;
63312;SDS011;49442;45.640;13.812;2024-03-17T07:11:54;34.70;;;27.35;;
63312;SDS011;49442;45.640;13.812;2024-03-17T07:14:20;36.33;;;28.60;;
63312;SDS011;49442;45.640;13.812;2024-03-17T07:16:46;38.83;;;28.35;;
63312;SDS011;49442;45.640;13.812;2024-03-17T07:19:11;49.30;;;31.60;;
63312;SDS011;49442;45.640;13.812;2024-03-17T07:21:37;41.50;;;31.55;;
63312;SDS011;49442;45.640;13.812;2024-03-17T07:24:03;43.88;;;32.92;;
63312;SDS011;49442;45.640;13.812;2024-03-17T07:26:29;45.70;;;33.75;;
63312;SDS011;49442;45.640;13.812;2024-03-17T07:28:55;41.25;;;32.15;;
63312;SDS011;49442;45.640;13.812;2024-03-17T07:31:21;43.70;;;34.22;;
63312;SDS011;49442;45.640;13.812;2024-03-17T07:33:47;45.08;;;34.22;;
63312;SDS011;49442;45.640;13.812;2024-03-17T07:36:14;44.83;;;32.50;;
63312;SDS011;49442;45.640;13.812;2024-03-17T07:38:40;49.17;;;33.17;;
63312;SDS011;49442;45.640;13.812;2024-03-17T07:41:09;47.20;;;34.17;;
63312;SDS011;49442;45.640;13.812;2024-03-17T07:43:35;44.05;;;33.72;;
63312;SDS011;49442;45.640;13.812;2024-03-17T07:46:08;46.65;;;31.80;;
63312;SDS011;49442;45.640;13.812;2024-03-17T07:48:37;53.92;;;34.10;;
63312;SDS011;49442;45.640;13.812;2024-03-17T07:51:05;47.78;;;33.47;;
63312;SDS011;49442;45.640;13.812;2024-03-17T07:53:34;48.63;;;33.92;;
63312;SDS011;49442;45.640;13.812;2024-03-17T07:56:04;42.05;;;31.50;;
63312;SDS011;49442;45.640;13.812;2024-03-17T07:58:38;48.63;;;32.67;;
63312;SDS011;49442;45.640;13.812;2024-03-17T08:01:05;42.40;;;32.42;;
63312;SDS011;49442;45.640;13.812;2024-03-17T08:03:34;45.50;;;32.95;;
63312;SDS011;49442;45.640;13.812;2024-03-17T08:06:02;43.60;;;32.45;;
63312;SDS011;49442;45.640;13.812;2024-03-17T08:08:29;45.88;;;33.65;;
63312;SDS011;49442;45.640;13.812;2024-03-17T08:10:56;42.83;;;32.50;;
63312;SDS011;49442;45.640;13.812;2024-03-17T08:13:22;45.30;;;30.90;;
63312;SDS011;49442;45.640;13.812;2024-03-17T08:15:58;44.78;;;32.05;;
63312;SDS011;49442;45.640;13.812;2024-03-17T08:18:27;46.03;;;32.20;;
63312;SDS011;49442;45.640;13.812;2024-03-17T08:20:56;44.70;;;31.60;;
63312;SDS011;49442;45.640;13.812;2024-03-17T08:23:22;44.05;;;31.13;;
63312;SDS011;49442;45.640;13.812;2024-03-17T08:25:58;39.75;;;30.02;;
63312;SDS011;49442;45.640;13.812;2024-03-17T08:28:25;41.42;;;30.58;;
63312;SDS011;49442;45.640;13.812;2024-03-17T08:30:53;40.00;;;29.63;;
63312;SDS011;49442;45.640;13.812;2024-03-17T08:33:19;44.22;;;30.80;;
63312;SDS011;49442;45.640;13.812;2024-03-17T08:38:19;42.55;;;32.65;;
63312;SDS011;49442;45.640;13.812;2024-03-17T08:40:46;42.08;;;31.60;;
63312;SDS011;49442;45.640;13.812;2024-03-17T08:43:12;36.97;;;29.35;;
63312;SDS011;49442;45.640;13.812;2024-03-17T08:45:38;42.60;;;30.02;;
63312;SDS011;49442;45.640;13.812;2024-03-17T08:48:04;41.65;;;29.55;;
63312;SDS011;49442;45.640;13.812;2024-03-17T08:50:30;35.97;;;27.60;;
63312;SDS011;49442;45.640;13.812;2024-03-17T08:52:58;37.25;;;25.70;;
63312;SDS011;49442;45.640;13.812;2024-03-17T08:55:24;37.33;;;26.45;;
63312;SDS011;49442;45.640;13.812;2024-03-17T08:57:49;37.55;;;24.00;;
63312;SDS011;49442;45.640;13.812;2024-03-17T09:00:15;31.60;;;24.20;;
63312;SDS011;49442;45.640;13.812;2024-03-17T09:02:41;31.33;;;22.85;;
63312;SDS011;49442;45.640;13.812;2024-03-17T09:05:07;30.45;;;23.60;;
63312;SDS011;49442;45.640;13.812;2024-03-17T09:07:33;28.52;;;21.30;;
63312;SDS011;49442;45.640;13.812;2024-03-17T09:09:59;26.50;;;20.33;;
63312;SDS011;49442;45.640;13.812;2024-03-17T09:12:25;25.30;;;21.67;;
63312;SDS011;49442;45.640;13.812;2024-03-17T09:14:52;29.10;;;21.27;;
63312;SDS011;49442;45.640;13.812;2024-03-17T09:17:18;33.67;;;22.30;;
63312;SDS011;49442;45.640;13.812;2024-03-17T09:19:46;28.45;;;20.05;;
63312;SDS011;49442;45.640;13.812;2024-03-17T09:22:12;33.03;;;21.13;;
63312;SDS011;49442;45.640;13.812;2024-03-17T09:24:38;26.98;;;21.83;;
63312;SDS011;49442;45.640;13.812;2024-03-17T09:27:05;24.42;;;20.33;;
63312;SDS011;49442;45.640;13.812;2024-03-17T09:29:31;33.03;;;22.77;;
63312;SDS011;49442;45.640;13.812;2024-03-17T09:31:58;28.92;;;21.90;;
63312;SDS011;49442;45.640;13.812;2024-03-17T09:34:24;31.05;;;23.10;;
63312;SDS011;49442;45.640;13.812;2024-03-17T09:36:49;27.85;;;21.73;;
63312;SDS011;49442;45.640;13.812;2024-03-17T09:39:15;27.38;;;21.67;;
63312;SDS011;49442;45.640;13.812;2024-03-17T09:41:41;29.27;;;21.33;;
63312;SDS011;49442;45.640;13.812;2024-03-17T09:44:09;26.65;;;19.67;;
63312;SDS011;49442;45.640;13.812;2024-03-17T09:46:38;28.45;;;22.33;;
63312;SDS011;49442;45.640;13.812;2024-03-17T09:49:04;27.45;;;18.60;;
63312;SDS011;49442;45.640;13.812;2024-03-17T09:51:34;31.27;;;21.92;;
63312;SDS011;49442;45.640;13.812;2024-03-17T09:54:05;30.88;;;21.88;;
63312;SDS011;49442;45.640;13.812;2024-03-17T09:56:42;29.65;;;20.77;;
63312;SDS011;49442;45.640;13.812;2024-03-17T09:59:08;36.03;;;20.23;;
63312;SDS011;49442;45.640;13.812;2024-03-17T10:01:33;28.60;;;18.65;;
63312;SDS011;49442;45.640;13.812;2024-03-17T10:03:59;27.55;;;19.98;;
63312;SDS011;49442;45.640;13.812;2024-03-17T10:06:29;30.27;;;21.10;;
63312;SDS011;49442;45.640;13.812;2024-03-17T10:08:56;28.42;;;20.23;;
63312;SDS011;49442;45.640;13.812;2024-03-17T10:11:32;27.40;;;19.50;;
63312;SDS011;49442;45.640;13.812;2024-03-17T10:14:03;29.70;;;20.25;;
63312;SDS011;49442;45.640;13.812;2024-03-17T10:16:31;30.73;;;21.20;;
63312;SDS011;49442;45.640;13.812;2024-03-17T10:19:10;30.92;;;20.10;;
63312;SDS011;49442;45.640;13.812;2024-03-17T10:21:44;25.13;;;19.40;;
63312;SDS011;49442;45.640;13.812;2024-03-17T10:26:47;28.27;;;19.13;;
63312;SDS011;49442;45.640;13.812;2024-03-17T10:29:23;21.03;;;18.00;;
63312;SDS011;49442;45.640;13.812;2024-03-17T10:31:54;23.17;;;19.08;;
63312;SDS011;49442;45.640;13.812;2024-03-17T10:34:21;21.85;;;17.80;;
63312;SDS011;49442;45.640;13.812;2024-03-17T10:39:32;28.25;;;19.67;;
63312;SDS011;49442;45.640;13.812;2024-03-17T10:42:03;26.25;;;19.00;;
63312;SDS011;49442;45.640;13.812;2024-03-17T10:44:30;28.98;;;20.40;;
63312;SDS011;49442;45.640;13.812;2024-03-17T10:46:57;31.98;;;20.50;;
63312;SDS011;49442;45.640;13.812;2024-03-17T10:49:35;27.60;;;20.33;;
63312;SDS011;49442;45.640;13.812;2024-03-17T10:52:07;26.33;;;20.95;;
63312;SDS011;49442;45.640;13.812;2024-03-17T10:54:40;26.40;;;19.80;;
63312;SDS011;49442;45.640;13.812;2024-03-17T10:59:40;25.88;;;19.42;;
63312;SDS011;49442;45.640;13.812;2024-03-17T11:02:15;31.30;;;20.88;;
63312;SDS011;49442;45.640;13.812;2024-03-17T11:04:54;23.42;;;20.25;;
63312;SDS011;49442;45.640;13.812;2024-03-17T11:07:21;30.05;;;20.60;;
63312;SDS011;49442;45.640;13.812;2024-03-17T11:09:48;28.75;;;20.40;;
63312;SDS011;49442;45.640;13.812;2024-03-17T11:20:36;24.23;;;19.35;;
63312;SDS011;49442;45.640;13.812;2024-03-17T11:23:07;26.00;;;18.45;;
63312;SDS011;49442;45.640;13.812;2024-03-17T11:25:37;33.63;;;20.08;;
63312;SDS011;49442;45.640;13.812;2024-03-17T11:28:04;28.50;;;18.90;;
63312;SDS011;49442;45.640;13.812;2024-03-17T11:46:43;33.17;;;22.40;;
63312;SDS011;49442;45.640;13.812;2024-03-17T11:49:20;26.67;;;20.95;;
63312;SDS011;49442;45.640;13.812;2024-03-17T11:52:00;31.95;;;22.02;;
63312;SDS011;49442;45.640;13.812;2024-03-17T11:54:29;30.38;;;23.05;;
63312;SDS011;49442;45.640;13.812;2024-03-17T11:57:01;31.17;;;21.55;;
63312;SDS011;49442;45.640;13.812;2024-03-17T11:59:28;30.38;;;21.05;;
63312;SDS011;49442;45.640;13.812;2024-03-17T12:01:54;25.50;;;19.23;;
63312;SDS011;49442;45.640;13.812;2024-03-17T12:04:21;26.20;;;18.55;;
63312;SDS011;49442;45.640;13.812;2024-03-17T12:06:49;26.10;;;18.77;;
63312;SDS011;49442;45.640;13.812;2024-03-17T12:09:20;22.63;;;17.27;;
63312;SDS011;49442;45.640;13.812;2024-03-17T12:12:03;22.17;;;17.02;;
63312;SDS011;49442;45.640;13.812;2024-03-17T12:14:31;26.77;;;19.10;;
63312;SDS011;49442;45.640;13.812;2024-03-17T12:16:59;33.88;;;21.88;;
63312;SDS011;49442;45.640;13.812;2024-03-17T12:19:27;32.67;;;22.33;;
63312;SDS011;49442;45.640;13.812;2024-03-17T12:21:54;35.60;;;25.63;;
63312;SDS011;49442;45.640;13.812;2024-03-17T12:24:22;36.80;;;25.52;;
63312;SDS011;49442;45.640;13.812;2024-03-17T12:26:49;33.25;;;23.75;;
63312;SDS011;49442;45.640;13.812;2024-03-17T12:31:52;33.17;;;23.92;;
63312;SDS011;49442;45.640;13.812;2024-03-17T12:34:20;35.55;;;24.88;;
63312;SDS011;49442;45.640;13.812;2024-03-17T12:36:47;38.97;;;24.80;;
63312;SDS011;49442;45.640;13.812;2024-03-17T12:44:37;31.88;;;25.02;;
63312;SDS011;49442;45.640;13.812;2024-03-17T12:47:19;32.22;;;23.77;;
63312;SDS011;49442;45.640;13.812;2024-03-17T12:52:31;31.27;;;23.77;;
63312;SDS011;49442;45.640;13.812;2024-03-17T12:55:08;34.55;;;25.70;;
63312;SDS011;49442;45.640;13.812;2024-03-17T13:00:46;31.08;;;26.10;;
63312;SDS011;49442;45.640;13.812;2024-03-17T13:03:36;35.45;;;25.48;;
63312;SDS011;49442;45.640;13.812;2024-03-17T13:06:05;27.52;;;22.45;;
63312;SDS011;49442;45.640;13.812;2024-03-17T13:08:32;35.33;;;26.75;;
63312;SDS011;49442;45.640;13.812;2024-03-17T13:10:58;36.85;;;27.40;;
63312;SDS011;49442;45.640;13.812;2024-03-17T13:13:24;33.50;;;25.45;;
63312;SDS011;49442;45.640;13.812;2024-03-17T13:15:50;33.13;;;24.70;;
63312;SDS011;49442;45.640;13.812;2024-03-17T13:18:16;39.25;;;25.98;;
63312;SDS011;49442;45.640;13.812;2024-03-17T13:20:44;34.25;;;26.73;;
63312;SDS011;49442;45.640;13.812;2024-03-17T13:23:10;35.92;;;26.75;;
63312;SDS011;49442;45.640;13.812;2024-03-17T13:25:36;36.65;;;28.42;;
63312;SDS011;49442;45.640;13.812;2024-03-17T13:28:03;32.75;;;23.85;;
63312;SDS011;49442;45.640;13.812;2024-03-17T13:30:29;32.67;;;25.15;;
63312;SDS011;49442;45.640;13.812;2024-03-17T13:32:56;31.52;;;24.63;;
63312;SDS011;49442;45.640;13.812;2024-03-17T13:35:28;32.08;;;24.95;;
63312;SDS011;49442;45.640;13.812;2024-03-17T13:37:55;33.53;;;25.05;;
63312;SDS011;49442;45.640;13.812;2024-03-17T13:40:25;41.10;;;28.23;;
63312;SDS011;49442;45.640;13.812;2024-03-17T13:42:52;34.55;;;25.05;;
63312;SDS011;49442;45.640;13.812;2024-03-17T13:45:19;34.30;;;26.08;;
63312;SDS011;49442;45.640;13.812;2024-03-17T13:47:50;34.83;;;26.52;;
63312;SDS011;49442;45.640;13.812;2024-03-17T13:50:20;31.65;;;24.02;;
63312;SDS011;49442;45.640;13.812;2024-03-17T13:52:46;36.70;;;25.58;;
63312;SDS011;49442;45.640;13.812;2024-03-17T13:55:14;33.92;;;25.48;;
63312;SDS011;49442;45.640;13.812;2024-03-17T13:57:44;37.75;;;27.55;;
63312;SDS011;49442;45.640;13.812;2024-03-17T14:00:11;33.05;;;25.13;;
63312;SDS011;49442;45.640;13.812;2024-03-17T14:02:44;34.35;;;26.38;;
63312;SDS011;49442;45.640;13.812;2024-03-17T14:05:12;39.38;;;28.02;;
63312;SDS011;49442;45.640;13.812;2024-03-17T14:07:38;35.83;;;27.88;;
63312;SDS011;49442;45.640;13.812;2024-03-17T14:10:04;39.35;;;28.17;;
63312;SDS011;49442;45.640;13.812;2024-03-17T14:12:31;34.80;;;26.73;;
63312;SDS011;49442;45.640;13.812;2024-03-17T14:14:57;35.65;;;25.95;;
63312;SDS011;49442;45.640;13.812;2024-03-17T14:17:22;44.67;;;28.35;;
63312;SDS011;49442;45.640;13.812;2024-03-17T14:19:48;39.10;;;27.25;;
63312;SDS011;49442;45.640;13.812;2024-03-17T14:22:14;34.47;;;27.20;;
63312;SDS011;49442;45.640;13.812;2024-03-17T14:24:40;35.53;;;27.52;;
63312;SDS011;49442;45.640;13.812;2024-03-17T14:27:06;40.28;;;28.60;;
63312;SDS011;49442;45.640;13.812;2024-03-17T14:29:32;32.95;;;25.52;;
63312;SDS011;49442;45.640;13.812;2024-03-17T14:31:58;35.97;;;27.05;;
63312;SDS011;49442;45.640;13.812;2024-03-17T14:34:23;43.45;;;29.25;;
63312;SDS011;49442;45.640;13.812;2024-03-17T14:36:51;38.67;;;28.08;;
63312;SDS011;49442;45.640;13.812;2024-03-17T14:39:17;35.38;;;27.70;;
63312;SDS011;49442;45.640;13.812;2024-03-17T14:41:43;41.85;;;30.60;;
63312;SDS011;49442;45.640;13.812;2024-03-17T14:44:08;36.30;;;27.95;;
63312;SDS011;49442;45.640;13.812;2024-03-17T14:46:34;39.22;;;26.63;;
63312;SDS011;49442;45.640;13.812;2024-03-17T14:49:00;36.08;;;27.02;;
63312;SDS011;49442;45.640;13.812;2024-03-17T14:51:26;32.75;;;26.33;;
63312;SDS011;49442;45.640;13.812;2024-03-17T14:53:52;36.70;;;26.00;;
63312;SDS011;49442;45.640;13.812;2024-03-17T14:56:18;34.78;;;25.25;;
63312;SDS011;49442;45.640;13.812;2024-03-17T14:58:44;33.13;;;25.60;;